createdAt,value
2022-11-03T00:01:50.134Z,8.17
2022-11-03T00:04:21.618Z,7.47
2022-11-03T00:06:51.271Z,7.47
2022-11-03T00:09:20.669Z,8.88
2022-11-03T00:11:54.623Z,7.40
2022-11-03T00:14:22.447Z,7.80
2022-11-03T00:16:50.186Z,7.10
2022-11-03T00:19:20.202Z,7.53
2022-11-03T00:21:48.000Z,8.13
2022-11-03T00:24:15.788Z,8.30
2022-11-03T00:26:45.765Z,8.03
2022-11-03T00:29:15.848Z,9.32
2022-11-03T00:31:45.261Z,7.88
2022-11-03T00:34:13.108Z,7.70
2022-11-03T00:36:44.512Z,7.20
2022-11-03T00:39:13.032Z,7.27
2022-11-03T00:41:41.211Z,8.47
2022-11-03T00:44:13.455Z,7.50
2022-11-03T00:46:42.762Z,6.20
2022-11-03T00:49:10.508Z,6.70
2022-11-03T00:51:40.485Z,7.43
2022-11-03T00:54:08.478Z,8.00
2022-11-03T00:56:37.910Z,7.30
2022-11-03T00:59:09.877Z,7.07
2022-11-03T01:01:45.363Z,6.67
2022-11-03T01:04:36.040Z,7.10
2022-11-03T01:07:06.187Z,7.13
2022-11-03T01:09:37.838Z,6.30
2022-11-03T01:12:06.927Z,6.33
2022-11-03T01:14:37.581Z,6.87
2022-11-03T01:17:08.991Z,5.90
2022-11-03T01:19:38.290Z,5.00
2022-11-03T01:22:09.628Z,5.93
2022-11-03T01:24:41.873Z,5.03
2022-11-03T01:27:09.736Z,4.40
2022-11-03T01:29:37.591Z,5.07
2022-11-03T01:32:08.415Z,5.37
2022-11-03T01:34:36.652Z,5.17
2022-11-03T01:37:06.622Z,5.00
2022-11-03T01:39:36.527Z,5.57
2022-11-03T01:42:04.414Z,5.55
2022-11-03T01:44:37.222Z,5.43
2022-11-03T01:47:16.120Z,6.10
2022-11-03T01:49:47.926Z,5.70
2022-11-03T01:52:24.147Z,6.07
2022-11-03T01:54:58.651Z,6.03
2022-11-03T01:57:35.055Z,5.90
2022-11-03T02:00:04.433Z,7.20
2022-11-03T02:02:34.460Z,6.63
2022-11-03T02:05:04.796Z,6.35
2022-11-03T02:07:41.572Z,6.95
2022-11-03T02:10:10.439Z,6.13
2022-11-03T02:12:38.749Z,6.87
2022-11-03T02:15:12.489Z,7.57
2022-11-03T02:17:43.580Z,7.20
2022-11-03T02:20:15.066Z,6.43
2022-11-03T02:23:18.179Z,6.93
2022-11-03T02:25:49.770Z,6.77
2022-11-03T02:28:23.437Z,5.80
2022-11-03T02:30:58.224Z,6.77
2022-11-03T02:33:33.859Z,7.00
2022-11-03T02:36:08.083Z,5.50
2022-11-03T02:38:46.001Z,6.00
2022-11-03T02:41:17.314Z,6.60
2022-11-03T02:43:48.937Z,6.67
2022-11-03T02:46:18.451Z,7.20
2022-11-03T02:48:46.937Z,8.10
2022-11-03T02:51:16.947Z,6.90
2022-11-03T02:53:52.681Z,5.45
2022-11-03T02:56:25.993Z,5.30
2022-11-03T02:58:59.408Z,6.23
2022-11-03T03:01:37.370Z,6.43
2022-11-03T03:04:09.146Z,6.10
2022-11-03T03:06:44.930Z,5.03
2022-11-03T03:09:19.991Z,5.70
2022-11-03T03:11:54.832Z,4.77
2022-11-03T03:14:25.919Z,6.17
2022-11-03T03:17:01.719Z,5.77
2022-11-03T03:19:45.280Z,5.37
2022-11-03T03:22:22.789Z,6.23
2022-11-03T03:24:54.625Z,5.40
2022-11-03T03:27:29.777Z,6.00
2022-11-03T03:30:01.181Z,5.90
2022-11-03T03:32:35.217Z,5.70
2022-11-03T03:35:07.765Z,6.67
2022-11-03T03:37:40.669Z,7.30
2022-11-03T03:40:12.544Z,8.30
2022-11-03T03:42:44.816Z,8.37
2022-11-03T03:45:14.495Z,9.13
2022-11-03T03:47:47.499Z,9.32
2022-11-03T03:50:17.737Z,8.00
2022-11-03T03:52:45.709Z,8.57
2022-11-03T03:55:18.798Z,9.00
2022-11-03T03:57:49.344Z,9.10
2022-11-03T04:02:44.934Z,9.97
2022-11-03T04:05:16.810Z,8.23
2022-11-03T04:07:50.198Z,9.13
2022-11-03T04:10:22.980Z,8.80
2022-11-03T04:13:09.910Z,8.97
2022-11-03T04:15:57.482Z,8.70
2022-11-03T04:18:42.757Z,8.40
2022-11-03T04:21:31.036Z,9.20
2022-11-03T04:24:00.303Z,8.67
2022-11-03T04:26:30.662Z,8.47
2022-11-03T04:29:01.658Z,8.90
2022-11-03T04:31:30.588Z,8.53
2022-11-03T04:34:00.705Z,7.50
2022-11-03T04:36:28.870Z,8.38
2022-11-03T04:38:56.681Z,6.63
2022-11-03T04:41:27.065Z,8.97
2022-11-03T04:43:58.324Z,7.40
2022-11-03T04:46:29.292Z,8.07
2022-11-03T04:49:02.051Z,8.07
2022-11-03T04:51:34.262Z,7.90
2022-11-03T04:54:05.613Z,7.97
2022-11-03T04:56:35.555Z,7.70
2022-11-03T04:59:04.030Z,6.82
2022-11-03T05:01:33.297Z,6.93
2022-11-03T05:04:03.448Z,6.83
2022-11-03T05:06:35.264Z,5.88
2022-11-03T05:09:08.990Z,6.23
2022-11-03T05:11:40.050Z,6.30
2022-11-03T05:14:15.402Z,5.93
2022-11-03T05:16:47.361Z,5.73
2022-11-03T05:19:22.176Z,6.23
2022-11-03T05:21:53.872Z,6.10
2022-11-03T05:24:25.879Z,6.33
2022-11-03T05:26:57.354Z,7.47
2022-11-03T05:29:27.300Z,6.77
2022-11-03T05:31:59.651Z,4.97
2022-11-03T05:34:37.070Z,6.90
2022-11-03T05:37:26.436Z,7.50
2022-11-03T05:39:58.546Z,5.63
2022-11-03T05:42:33.895Z,6.47
2022-11-03T05:45:05.609Z,6.87
2022-11-03T05:47:39.519Z,6.47
2022-11-03T05:50:19.770Z,6.50
2022-11-03T05:52:52.507Z,6.07
2022-11-03T05:55:26.990Z,7.13
2022-11-03T05:57:59.878Z,6.80
2022-11-03T06:00:30.668Z,5.50
2022-11-03T06:03:02.441Z,5.83
2022-11-03T06:05:33.587Z,5.87
2022-11-03T06:08:16.389Z,6.37
2022-11-03T06:10:49.855Z,4.63
2022-11-03T06:13:21.545Z,4.80
2022-11-03T06:15:59.030Z,4.57
2022-11-03T06:18:33.488Z,4.53
2022-11-03T06:21:07.276Z,4.47
2022-11-03T06:23:38.784Z,4.87
2022-11-03T06:26:17.003Z,5.07
2022-11-03T06:28:48.699Z,4.27
2022-11-03T06:31:23.302Z,4.97
2022-11-03T06:33:53.774Z,4.20
2022-11-03T06:36:23.677Z,4.00
2022-11-03T06:38:56.087Z,4.40
2022-11-03T06:41:26.548Z,5.07
2022-11-03T06:46:25.989Z,4.80
2022-11-03T06:48:58.552Z,5.53
2022-11-03T06:51:30.312Z,5.90
2022-11-03T06:54:01.438Z,5.33
2022-11-03T06:56:32.625Z,6.10
2022-11-03T06:59:01.718Z,6.77
2022-11-03T07:01:34.062Z,6.93
2022-11-03T07:04:13.141Z,6.27
2022-11-03T07:06:47.787Z,5.00
2022-11-03T07:09:22.644Z,4.93
2022-11-03T07:11:53.055Z,7.63
2022-11-03T07:14:24.213Z,6.90
2022-11-03T07:16:57.172Z,6.63
2022-11-03T07:19:30.894Z,6.53
2022-11-03T07:22:01.680Z,6.27
2022-11-03T07:24:34.668Z,12.67
2022-11-03T07:27:14.843Z,23.17
2022-11-03T07:29:46.748Z,10.73
2022-11-03T07:32:22.643Z,10.50
2022-11-03T07:34:54.780Z,10.20
2022-11-03T07:37:26.527Z,10.03
2022-11-03T07:39:54.814Z,8.10
2022-11-03T07:42:24.296Z,7.70
2022-11-03T07:44:53.784Z,6.23
2022-11-03T07:47:26.448Z,7.73
2022-11-03T07:49:56.511Z,7.67
2022-11-03T07:52:27.343Z,7.38
2022-11-03T07:54:57.113Z,6.60
2022-11-03T07:57:27.940Z,6.90
2022-11-03T08:00:00.697Z,6.30
2022-11-03T08:02:34.105Z,6.60
2022-11-03T08:05:06.307Z,6.57
2022-11-03T08:07:34.092Z,5.87
2022-11-03T08:10:03.716Z,6.60
2022-11-03T08:12:31.618Z,5.65
2022-11-03T08:14:59.697Z,5.57
2022-11-03T08:17:27.931Z,6.03
2022-11-03T08:19:56.004Z,5.60
2022-11-03T08:22:26.027Z,5.90
2022-11-03T08:24:54.055Z,6.00
2022-11-03T08:27:22.039Z,6.13
2022-11-03T08:29:49.917Z,6.10
2022-11-03T08:32:19.270Z,6.00
2022-11-03T08:34:49.324Z,6.30
2022-11-03T08:37:17.232Z,5.88
2022-11-03T08:39:46.352Z,6.10
2022-11-03T08:42:16.352Z,6.63
2022-11-03T08:44:44.195Z,6.32
2022-11-03T08:47:11.953Z,5.83
2022-11-03T08:49:41.912Z,5.37
2022-11-03T08:52:09.711Z,6.57
2022-11-03T08:54:37.457Z,5.60
2022-11-03T08:57:08.449Z,5.60
2022-11-03T08:59:36.260Z,5.50
2022-11-03T09:02:04.090Z,5.90
2022-11-03T09:04:31.947Z,5.27
2022-11-03T09:06:59.715Z,5.00
2022-11-03T09:12:16.753Z,5.67
2022-11-03T09:14:45.010Z,5.43
2022-11-03T09:17:12.800Z,4.60
2022-11-03T09:19:40.687Z,4.60
2022-11-03T09:22:08.505Z,4.70
2022-11-03T09:24:36.276Z,4.97
2022-11-03T09:27:04.911Z,4.83
2022-11-03T09:29:58.386Z,5.03
2022-11-03T09:32:23.664Z,4.90
2022-11-03T09:34:51.635Z,5.28
2022-11-03T09:37:19.426Z,4.50
2022-11-03T09:39:49.335Z,3.97
2022-11-03T09:42:18.540Z,21.98
2022-11-03T09:44:50.481Z,7.40
2022-11-03T09:47:25.000Z,4.30
2022-11-03T09:49:53.318Z,4.13
2022-11-03T09:52:25.049Z,4.30
2022-11-03T09:54:55.383Z,4.13
2022-11-03T09:57:24.075Z,3.65
2022-11-03T09:59:53.394Z,3.20
2022-11-03T10:02:25.987Z,3.30
2022-11-03T10:04:55.353Z,2.70
2022-11-03T10:07:28.076Z,3.73
2022-11-03T10:09:58.115Z,2.90
2022-11-03T10:12:27.417Z,3.13
2022-11-03T10:14:56.814Z,3.20
2022-11-03T10:17:30.032Z,2.57
2022-11-03T10:19:59.192Z,2.50
2022-11-03T10:22:26.986Z,2.77
2022-11-03T10:25:34.628Z,4.00
2022-11-03T10:28:15.020Z,2.60
2022-11-03T10:33:44.339Z,2.90
2022-11-03T10:36:30.891Z,2.40
2022-11-03T10:38:59.583Z,2.30
2022-11-03T10:41:30.874Z,2.83
2022-11-03T10:44:05.790Z,3.03
2022-11-03T10:46:49.692Z,2.70
2022-11-03T10:49:20.743Z,2.40
2022-11-03T10:51:53.412Z,1.87
2022-11-03T10:54:23.758Z,2.33
2022-11-03T10:56:54.018Z,2.30
2022-11-03T10:59:23.774Z,2.33
2022-11-03T11:01:53.232Z,2.58
2022-11-03T11:04:23.345Z,1.98
2022-11-03T11:06:52.636Z,1.77
2022-11-03T11:09:25.657Z,2.40
2022-11-03T11:12:00.882Z,2.03
2022-11-03T11:14:39.881Z,1.90
2022-11-03T11:17:43.201Z,2.00
2022-11-03T11:20:33.996Z,2.13
2022-11-03T11:23:50.101Z,2.10
2022-11-03T11:26:41.751Z,2.43
2022-11-03T11:29:37.002Z,2.23
2022-11-03T11:32:52.640Z,2.20
2022-11-03T11:36:06.506Z,2.63
2022-11-03T11:39:12.517Z,2.00
2022-11-03T11:42:12.280Z,1.87
2022-11-03T11:45:04.120Z,2.17
2022-11-03T11:47:53.014Z,2.20
2022-11-03T11:50:24.696Z,2.30
2022-11-03T11:52:58.066Z,1.73
2022-11-03T11:55:35.985Z,1.97
2022-11-03T11:58:06.191Z,1.87
2022-11-03T12:00:36.533Z,2.47
2022-11-03T12:03:07.766Z,2.35
2022-11-03T12:05:38.605Z,2.10
2022-11-03T12:08:18.690Z,2.00
2022-11-03T12:10:54.613Z,1.88
2022-11-03T12:13:48.383Z,2.10
2022-11-03T12:16:31.975Z,2.17
2022-11-03T12:19:39.792Z,2.40
2022-11-03T12:22:10.995Z,1.83
2022-11-03T12:24:50.700Z,2.10
2022-11-03T12:27:44.329Z,2.65
2022-11-03T12:30:17.568Z,2.40
2022-11-03T12:32:48.228Z,2.10
2022-11-03T12:35:16.029Z,1.73
2022-11-03T12:37:45.727Z,2.00
2022-11-03T12:40:14.493Z,2.50
2022-11-03T12:42:42.282Z,2.00
2022-11-03T12:45:13.602Z,2.10
2022-11-03T12:47:43.765Z,2.83
2022-11-03T12:50:11.757Z,2.38
2022-11-03T12:52:39.603Z,2.13
2022-11-03T12:55:09.699Z,1.70
2022-11-03T12:57:37.495Z,2.17
2022-11-03T13:00:06.967Z,2.43
2022-11-03T13:02:38.610Z,2.13
2022-11-03T13:05:07.862Z,2.13
2022-11-03T13:07:35.670Z,2.37
2022-11-03T13:10:05.980Z,2.00
2022-11-03T13:12:32.857Z,2.30
2022-11-03T13:15:01.865Z,2.07
2022-11-03T13:17:45.635Z,2.00
2022-11-03T13:20:21.210Z,1.90
2022-11-03T13:22:51.569Z,2.33
2022-11-03T13:25:19.712Z,3.35
2022-11-03T13:27:49.004Z,2.17
2022-11-03T13:30:16.932Z,2.23
2022-11-03T13:32:44.924Z,2.30
2022-11-03T13:35:14.161Z,2.53
2022-11-03T13:37:45.511Z,2.17
2022-11-03T13:40:35.696Z,2.30
2022-11-03T13:43:04.268Z,2.20
2022-11-03T13:45:32.150Z,1.90
2022-11-03T13:50:52.015Z,2.53
2022-11-03T13:56:16.939Z,2.10
2022-11-03T14:01:37.824Z,2.37
2022-11-03T14:07:01.171Z,1.90
2022-11-03T14:09:30.807Z,3.53
2022-11-03T14:12:16.215Z,3.00
2022-11-03T14:14:44.282Z,2.53
2022-11-03T14:17:12.307Z,2.40
2022-11-03T14:19:45.930Z,1.93
2022-11-03T14:22:16.720Z,2.60
2022-11-03T14:24:46.271Z,2.37
2022-11-03T14:27:15.851Z,2.47
2022-11-03T14:29:44.578Z,3.00
2022-11-03T14:32:13.093Z,2.10
2022-11-03T14:34:40.909Z,2.37
2022-11-03T14:37:11.260Z,2.37
2022-11-03T14:39:39.216Z,2.10
2022-11-03T14:42:16.861Z,2.90
2022-11-03T14:44:48.380Z,2.10
2022-11-03T14:47:18.756Z,2.53
2022-11-03T14:49:47.155Z,2.50
2022-11-03T14:52:17.801Z,2.13
2022-11-03T14:54:45.709Z,2.37
2022-11-03T14:57:14.874Z,2.07
2022-11-03T14:59:42.919Z,2.23
2022-11-03T15:02:11.776Z,2.30
2022-11-03T15:04:39.647Z,2.53
2022-11-03T15:07:09.687Z,2.47
2022-11-03T15:09:37.517Z,2.03
2022-11-03T15:12:05.672Z,2.60
2022-11-03T15:14:36.036Z,2.63
2022-11-03T15:17:03.860Z,2.40
2022-11-03T15:19:31.639Z,2.47
2022-11-03T15:21:59.504Z,2.50
2022-11-03T15:27:15.158Z,2.53
2022-11-03T15:29:44.302Z,2.20
2022-11-03T15:32:12.071Z,3.03
2022-11-03T15:34:40.134Z,2.73
2022-11-03T15:37:08.577Z,2.73
2022-11-03T15:39:36.314Z,3.30
2022-11-03T15:42:04.288Z,3.13
2022-11-03T15:44:34.340Z,3.50
2022-11-03T15:47:03.499Z,2.85
2022-11-03T15:49:31.342Z,3.10
2022-11-03T15:51:59.312Z,2.90
2022-11-03T15:54:27.249Z,3.83
2022-11-03T15:56:57.183Z,7.67
2022-11-03T15:59:24.962Z,9.82
2022-11-03T16:01:59.490Z,5.10
2022-11-03T16:04:34.801Z,4.30
2022-11-03T16:07:07.832Z,7.60
2022-11-03T16:09:38.536Z,8.20
2022-11-03T16:12:06.733Z,4.38
2022-11-03T16:14:34.493Z,4.67
2022-11-03T16:17:05.252Z,4.03
2022-11-03T16:19:34.494Z,5.00
2022-11-03T16:22:02.266Z,4.70
2022-11-03T16:24:35.179Z,5.53
2022-11-03T16:27:03.675Z,5.63
2022-11-03T16:29:31.512Z,4.93
2022-11-03T16:31:59.519Z,6.33
2022-11-03T16:34:27.396Z,6.07
2022-11-03T16:36:57.107Z,5.90
2022-11-03T16:39:25.013Z,8.95
2022-11-03T16:41:54.839Z,7.83
2022-11-03T16:44:23.132Z,6.22
2022-11-03T16:46:51.003Z,6.17
2022-11-03T16:49:18.770Z,6.60
2022-11-03T16:51:48.850Z,6.33
2022-11-03T16:54:18.030Z,5.70
2022-11-03T16:56:48.468Z,5.50
2022-11-03T16:59:24.337Z,5.47
2022-11-03T17:01:52.247Z,6.07
2022-11-03T17:04:20.237Z,5.27
2022-11-03T17:06:50.193Z,5.93
2022-11-03T17:09:20.237Z,6.15
2022-11-03T17:11:48.032Z,6.20
2022-11-03T17:14:18.030Z,6.43
2022-11-03T17:16:47.138Z,5.70
2022-11-03T17:19:15.142Z,6.53
2022-11-03T17:21:45.126Z,5.47
2022-11-03T17:24:13.572Z,6.20
2022-11-03T17:26:53.888Z,6.93
2022-11-03T17:29:25.160Z,6.47
2022-11-03T17:31:55.547Z,6.00
2022-11-03T17:34:25.885Z,6.45
2022-11-03T17:36:54.475Z,5.93
2022-11-03T17:39:29.363Z,6.73
2022-11-03T17:42:06.119Z,6.20
2022-11-03T17:44:33.962Z,6.00
2022-11-03T17:47:01.801Z,6.43
2022-11-03T17:49:29.690Z,6.53
2022-11-03T17:51:59.188Z,6.53
2022-11-03T17:54:30.013Z,7.57
2022-11-03T17:57:03.085Z,7.33
2022-11-03T17:59:31.124Z,7.07
2022-11-03T18:01:59.054Z,8.37
2022-11-03T18:04:29.117Z,8.80
2022-11-03T18:06:56.995Z,8.88
2022-11-03T18:09:34.164Z,7.67
2022-11-03T18:12:20.641Z,7.97
2022-11-03T18:14:48.466Z,7.53
2022-11-03T18:17:16.533Z,8.67
2022-11-03T18:19:44.369Z,7.60
2022-11-03T18:22:12.790Z,8.00
2022-11-03T18:24:42.832Z,8.00
2022-11-03T18:27:24.141Z,7.93
2022-11-03T18:29:53.102Z,8.30
2022-11-03T18:32:20.984Z,7.17
2022-11-03T18:34:48.801Z,8.10
2022-11-03T18:37:16.711Z,7.43
2022-11-03T18:39:44.689Z,7.97
2022-11-03T18:42:16.415Z,8.57
2022-11-03T18:44:46.611Z,7.47
2022-11-03T18:47:16.680Z,8.20
2022-11-03T18:49:44.486Z,8.25
2022-11-03T18:52:30.500Z,8.70
2022-11-03T18:54:58.387Z,6.67
2022-11-03T18:57:27.592Z,6.47
2022-11-03T18:59:55.508Z,8.90
2022-11-03T19:02:32.603Z,7.50
2022-11-03T19:05:00.658Z,7.40
2022-11-03T19:07:32.394Z,7.37
2022-11-03T19:10:04.838Z,7.30
2022-11-03T19:12:38.764Z,9.23
2022-11-03T19:15:17.190Z,7.47
2022-11-03T19:17:45.204Z,7.97
2022-11-03T19:20:18.244Z,8.23
2022-11-03T19:22:46.654Z,12.93
2022-11-03T19:25:15.800Z,8.37
2022-11-03T19:27:49.136Z,17.17
2022-11-03T19:30:18.543Z,8.93
2022-11-03T19:32:52.041Z,9.67
2022-11-03T19:35:22.535Z,9.23
2022-11-03T19:40:29.909Z,8.80
2022-11-03T19:43:00.613Z,9.87
2022-11-03T19:50:52.127Z,9.20
2022-11-03T19:53:23.539Z,8.98
2022-11-03T19:55:51.682Z,8.67
2022-11-03T19:58:23.336Z,9.97
2022-11-03T20:00:52.045Z,11.10
2022-11-03T20:03:22.154Z,9.20
2022-11-03T20:05:54.254Z,9.68
2022-11-03T20:08:24.512Z,9.73
2022-11-03T20:10:53.339Z,9.45
2022-11-03T20:13:25.309Z,9.67
2022-11-03T20:16:00.517Z,9.23
2022-11-03T20:18:30.717Z,9.00
2022-11-03T20:21:04.973Z,8.73
2022-11-03T20:23:41.142Z,8.37
2022-11-03T20:26:14.307Z,8.87
2022-11-03T20:28:48.563Z,7.63
2022-11-03T20:31:17.601Z,8.47
2022-11-03T20:33:47.616Z,8.10
2022-11-03T20:36:17.409Z,7.82
2022-11-03T20:38:49.967Z,7.88
2022-11-03T20:41:20.334Z,8.50
2022-11-03T20:43:51.109Z,6.93
2022-11-03T20:46:26.218Z,7.13
2022-11-03T20:48:55.492Z,7.00
2022-11-03T20:51:25.623Z,6.87
2022-11-03T20:53:56.791Z,7.18
2022-11-03T20:56:27.030Z,6.80
2022-11-03T20:58:57.128Z,6.53
2022-11-03T21:01:27.004Z,6.82
2022-11-03T21:03:59.625Z,6.53
2022-11-03T21:06:29.628Z,6.43
2022-11-03T21:08:57.934Z,6.93
2022-11-03T21:11:29.255Z,6.93
2022-11-03T21:14:01.050Z,6.97
2022-11-03T21:16:48.104Z,6.37
2022-11-03T21:19:43.522Z,6.90
2022-11-03T21:22:50.685Z,6.50
2022-11-03T21:25:07.792Z,6.47
2022-11-03T21:27:39.318Z,5.97
2022-11-03T21:30:15.023Z,5.97
2022-11-03T21:32:42.918Z,6.07
2022-11-03T21:35:16.163Z,6.10
2022-11-03T21:37:43.977Z,7.30
2022-11-03T21:40:12.700Z,5.93
2022-11-03T21:42:57.994Z,5.87
2022-11-03T21:45:27.453Z,6.17
2022-11-03T21:48:14.609Z,6.33
2022-11-03T21:50:45.074Z,6.73
2022-11-03T21:53:15.051Z,6.95
2022-11-03T21:55:42.802Z,6.85
2022-11-03T21:58:10.600Z,6.63
2022-11-03T22:00:42.100Z,6.87
2022-11-03T22:03:10.413Z,7.00
2022-11-03T22:05:38.362Z,6.27
2022-11-03T22:08:09.209Z,7.33
2022-11-03T22:10:39.787Z,7.20
2022-11-03T22:13:07.903Z,6.97
2022-11-03T22:15:53.465Z,7.53
2022-11-03T22:18:24.762Z,6.40
2022-11-03T22:21:09.885Z,6.93
2022-11-03T22:24:09.798Z,7.23
2022-11-03T22:26:54.849Z,6.85
2022-11-03T22:29:42.154Z,7.43
2022-11-03T22:32:14.826Z,7.97
2022-11-03T22:35:03.078Z,7.20
2022-11-03T22:40:17.546Z,7.57
2022-11-03T22:43:11.450Z,7.77
2022-11-03T22:45:52.524Z,7.90
2022-11-03T22:48:20.478Z,8.67
2022-11-03T22:50:57.399Z,8.50
2022-11-03T22:53:42.581Z,7.77
2022-11-03T22:56:13.205Z,8.30
2022-11-03T22:58:41.025Z,7.40
2022-11-03T23:01:11.376Z,8.37
2022-11-03T23:03:42.696Z,8.73
2022-11-03T23:06:14.032Z,8.13
2022-11-03T23:08:45.119Z,8.47
2022-11-03T23:11:16.214Z,8.87
2022-11-03T23:13:44.804Z,8.43
2022-11-03T23:16:15.043Z,8.43
2022-11-03T23:19:00.347Z,7.47
2022-11-03T23:21:32.349Z,8.70
2022-11-03T23:24:17.775Z,8.53
2022-11-03T23:26:50.775Z,9.13
2022-11-03T23:29:18.953Z,8.50
2022-11-03T23:31:47.080Z,8.70
2022-11-03T23:34:17.191Z,8.83
2022-11-03T23:36:46.572Z,8.13
2022-11-03T23:39:16.073Z,8.23
2022-11-03T23:41:46.399Z,8.93
2022-11-03T23:44:15.060Z,8.50
2022-11-03T23:47:00.872Z,9.20
2022-11-03T23:49:30.952Z,8.83
2022-11-03T23:52:02.174Z,9.57
2022-11-03T23:54:30.097Z,9.77
2022-11-03T23:57:17.470Z,9.37
